• Join FlightAware (Why Join?)
  • Login
  • US Flag 
06:28AM EDT


 

Airport Tracker/Info


-or-


 

Live Flight TrackerFlight Track Log ✈ AAL1907 ✈ 23-Jun-2013 ✈ KATL - KMIA

Flight Track Log - Related Links

Times and Time Zones

All times are in EDT time to prevent confusion due to time zone crossing. See the AAL1907 flight status page for this flight to view local times or setup timezone preferences in your user account.

Time Position Orientation Groundspeed Altitude Reporting Facility
EDT Latitude Longitude Course Direction KTS MPH feet Rate Location/Type
07:52AM 33.6430 -84.4410 87° East 11 13  Level FlightAware
07:55AM 33.6410 -84.4410 180° South 24 28 240 Level FlightAware
07:56AM 33.6380 -84.4410 180° South 26 30 360 Level FlightAware
07:57AM 33.6370 -84.4410 180° South 21 24 420 Level FlightAware
07:57AM 33.6370 -84.4420 270° West 21 24 540 Level FlightAware
07:59AM 33.6360 -84.4480 259° West 31 36 600 Level FlightAware
07:59AM 33.6350 -84.4480 180° South 27 31 1,080 Level FlightAware
07:59AM 33.6350 -84.4470 90° East 24 28 1,260 Level FlightAware
08:00AM 33.6350 -84.4380 90° East 110 127 1,620 Level FlightAware
08:00AM 33.6350 -84.4300 90° East 145 167 2,400 Level FlightAware
08:01AM 33.6350 -84.3920 90° East 165 190 2,200 2,460 Climbing FlightAware
08:01AM 33.6300 -84.3720 107° East 196 226 2,600 1,140 Climbing FlightAware
08:01AM 33.6240 -84.3530 111° Southeast 224 258 2,900 1,740 Climbing FlightAware
08:02AM 33.6130 -84.3180 111° Southeast 250 288 3,900 2,580 Climbing FlightAware
08:02AM 33.6060 -84.2970 112° Southeast 252 290 4,800 3,000 Climbing FlightAware
08:02AM 33.5930 -84.2820 136° Southeast 255 293 5,500 2,760 Climbing FlightAware
08:02AM 33.5790 -84.2760 160° South 260 299 6,100 3,000 Climbing FlightAware
08:03AM 33.5460 -84.2760 180° South 270 311 7,400 3,000 Climbing FlightAware
08:03AM 33.5110 -84.2770 181° South 278 320 8,800 3,000 Climbing FlightAware
08:04AM 33.4960 -84.2770 180° South 279 321 9,400 1,320 Climbing FlightAware
08:04AM 33.4540 -84.2770 180° South 278 320 9,800 1,140 Climbing FlightAware
08:05AM 33.3770 -84.2650 173° South 336 387 11,100 1,980 Climbing FlightAware
08:06AM 33.3260 -84.2180 142° Southeast 357 411 13,000 2,820 Climbing FlightAware
08:06AM 33.2690 -84.1590 139° Southeast 376 433 15,100 2,820 Climbing FlightAware
08:07AM 33.2390 -84.1280 139° Southeast 384 442 16,200 2,820 Climbing FlightAware
08:08AM 33.1770 -84.0760 145° Southeast 400 460 18,100 2,700 Climbing FlightAware
08:08AM 33.1280 -84.0370 146° Southeast 410 472 19,500 2,580 Climbing FlightAware
08:09AM 33.0820 -84.0000 146° Southeast 415 478 20,800 2,640 Climbing FlightAware
08:09AM 33.0120 -83.9440 146° Southeast 425 489 22,700 2,340 Climbing FlightAware
08:10AM 32.9460 -83.8920 147° Southeast 440 506 24,000 1,980 Climbing FlightAware
08:10AM 32.8990 -83.8540 146° Southeast 447 514 25,000 2,100 Climbing FlightAware
08:11AM 32.8170 -83.7880 146° Southeast 457 526 26,600 1,920 Climbing FlightAware
08:12AM 32.7500 -83.7350 146° Southeast 466 536 27,700 1,620 Climbing FlightAware
08:12AM 32.7110 -83.7030 145° Southeast 471 542 28,300 420 Climbing FlightAware
08:13AM 32.6310 -83.6390 146° Southeast 471 542 28,300  Level FlightAware
08:14AM 32.5750 -83.5950 146° Southeast 471 542 28,300  Level FlightAware
08:15AM 32.4820 -83.5200 146° Southeast 471 542 28,300  Level FlightAware
08:15AM 32.4250 -83.4750 146° Southeast 471 542 28,300  Level FlightAware
08:16AM 32.3650 -83.4270 146° Southeast 471 542 28,300 4,560 Level FlightAware
08:17AM 32.1764 -83.2803 146° Southeast 461 531 37,600 4,020 Climbing Jacksonville Center
08:18AM 32.0700 -83.1967 146° Southeast 456 525 38,000 180 Climbing Jacksonville Center
08:19AM 31.9556 -83.1081 147° Southeast 461 531 38,000  Level Jacksonville Center
08:20AM 31.8511 -83.0294 147° Southeast 461 531 38,000  Level Jacksonville Center
08:21AM 31.7511 -82.9489 146° Southeast 456 525 38,000  Level Jacksonville Center
08:22AM 31.6467 -82.8706 147° Southeast 451 519 38,000  Level Jacksonville Center
08:23AM 31.5444 -82.7903 146° Southeast 451 519 38,000  Level Jacksonville Center
08:24AM 31.4439 -82.7147 147° Southeast 445 512 38,000  Level Jacksonville Center
08:25AM 31.3603 -82.6492 146° Southeast 439 505 38,000  Level Jacksonville Center
08:26AM 31.2369 -82.5597 148° Southeast 434 499 38,000  Level Jacksonville Center
08:27AM 31.1344 -82.4825 147° Southeast 439 505 38,000 -60 Level Jacksonville Center
08:28AM 31.0297 -82.4028 147° Southeast 439 505 37,900 -60 Descending Jacksonville Center
08:29AM 30.9272 -82.3233 146° Southeast 439 505 37,900  Level Jacksonville Center
08:35AM 30.3350 -81.8740 146° Southeast 446 513 38,000  Climbing FlightAware
08:36AM 30.2740 -81.8280 147° Southeast 447 514 38,000  Level FlightAware
08:36AM 30.1880 -81.7640 147° Southeast 447 514 38,000  Level FlightAware
08:37AM 30.1250 -81.7170 147° Southeast 448 516 38,000  Level FlightAware
08:38AM 30.0260 -81.6440 147° Southeast 447 514 38,000  Level FlightAware
08:39AM 29.9440 -81.5830 147° Southeast 446 513 38,000  Level FlightAware
08:39AM 29.8840 -81.5390 148° Southeast 446 513 38,000  Level FlightAware
08:40AM 29.8830 -81.5370 120° Southeast 446 513 38,000  Level FlightAware
08:41AM 29.7550 -81.4440 148° Southeast 444 511 38,000  Level FlightAware
08:41AM 29.7010 -81.4030 147° Southeast 444 511 38,000  Level FlightAware
08:42AM 29.5780 -81.3140 148° Southeast 445 512 38,000  Level FlightAware
08:43AM 29.5070 -81.2620 147° Southeast 439 505 38,000  Level FlightAware
08:44AM 29.4310 -81.2060 147° Southeast 439 505 38,000  Level FlightAware
08:44AM 29.3450 -81.1430 147° Southeast 440 506 38,000  Level FlightAware
08:45AM 29.2940 -81.1060 148° Southeast 441 507 38,000  Level FlightAware
08:46AM 29.2050 -81.0730 162° South 447 514 38,000  Level FlightAware
08:47AM 29.0810 -81.0230 161° South 440 506 38,000  Level FlightAware
08:48AM 28.9510 -80.9710 161° South 441 507 38,000  Level FlightAware
08:48AM 28.8970 -80.9500 161° South 441 507 38,000  Level FlightAware
08:49AM 28.8010 -80.9120 161° South 440 506 38,000  Level FlightAware
08:50AM 28.7140 -80.8770 161° South 440 506 38,000  Level FlightAware
08:51AM 28.6290 -80.8430 161° South 440 506 38,000  Level FlightAware
08:51AM 28.5450 -80.8090 160° South 447 514 38,000  Level FlightAware
08:52AM 28.4780 -80.7830 161° South 440 506 38,000  Level FlightAware
08:52AM 28.4190 -80.7590 160° South 440 506 38,000  Level FlightAware
08:53AM 28.3370 -80.7270 161° South 440 506 38,000  Level FlightAware
08:54AM 28.2510 -80.6930 161° South 440 506 38,000  Level FlightAware
08:55AM 28.1730 -80.6620 161° South 440 506 38,000  Level FlightAware
08:55AM 28.1030 -80.6350 161° South 441 507 38,000  Level FlightAware
08:56AM 28.0030 -80.6010 163° South 440 506 38,000  Level FlightAware
08:56AM 27.9550 -80.5840 163° South 440 506 38,000 -240 Level FlightAware
08:57AM 27.8850 -80.5600 163° South 438 504 37,800 -1,500 Descending FlightAware
08:58AM 27.7960 -80.5300 163° South 436 502 36,000 -2,580 Descending FlightAware
08:58AM 27.7350 -80.5090 163° South 440 506 34,400 -3,120 Descending FlightAware
08:59AM 27.6460 -80.4770 162° South 448 516 32,100 -3,240 Descending FlightAware
09:00AM 27.5730 -80.4470 160° South 460 529 30,000 -2,940 Descending FlightAware
09:01AM 27.4630 -80.4020 160° South 449 517 27,500 -2,760 Descending FlightAware
09:02AM 27.3410 -80.3530 160° South 425 489 24,900 -2,100 Descending FlightAware
09:02AM 27.2690 -80.3230 160° South 413 475 24,000 -780 Descending FlightAware
09:03AM 27.2140 -80.3010 160° South 411 473 24,000  Level FlightAware
09:04AM 27.1240 -80.2650 160° South 412 474 24,000  Level FlightAware
09:04AM 27.0490 -80.2350 160° South 413 475 24,000  Level FlightAware
09:05AM 26.9930 -80.2120 160° South 414 476 24,000 -780 Level FlightAware
09:05AM 26.9210 -80.1830 160° South 409 471 23,100 -1,980 Descending FlightAware
09:06AM 26.8400 -80.1510 161° South 408 470 21,200 -2,520 Descending FlightAware
09:07AM 26.7700 -80.1230 160° South 392 451 19,600 -2,400 Descending FlightAware
09:07AM 26.7170 -80.1010 160° South 392 451 18,400 -2,520 Descending FlightAware
09:08AM 26.6480 -80.0810 165° South 387 445 16,700 -2,520 Descending FlightAware
09:09AM 26.5850 -80.0700 171° South 373 429 15,300 -2,400 Descending FlightAware
09:09AM 26.5170 -80.0590 172° South 358 412 13,700 -1,800 Descending FlightAware
09:10AM 26.4430 -80.0460 171° South 341 392 12,800 -900 Descending FlightAware
09:11AM 26.3900 -80.0360 170° South 329 379 12,500 -1,320 Descending FlightAware
09:11AM 26.3360 -80.0270 172° South 327 376 11,300 -2,040 Descending FlightAware
09:12AM 26.2760 -80.0170 172° South 326 375 10,100 -1,260 Descending FlightAware
09:12AM 26.2260 -80.0210 184° South 323 372 9,800 -360 Descending FlightAware
09:13AM 26.1970 -80.0290 194° South 321 369 9,800  Level FlightAware
09:13AM 26.1610 -80.0390 194° South 324 373 9,800  Level FlightAware
09:13AM 26.1280 -80.0490 195° South 323 372 9,800  Level FlightAware
09:14AM 26.1100 -80.0540 194° South 322 371 9,800  Level FlightAware
09:14AM 26.1010 -80.0570 197° South 320 368 9,800 -300 Level FlightAware
09:14AM 26.0490 -80.0710 194° South 289 333 9,600 -1,020 Descending FlightAware
09:15AM 26.0160 -80.0800 194° South 288 331 8,900 -1,620 Descending FlightAware
09:15AM 25.9950 -80.0860 194° South 287 330 8,500 -1,440 Descending FlightAware
09:15AM 25.9640 -80.1010 204° Southwest 287 330 7,900 -960 Descending FlightAware
09:16AM 25.9480 -80.1210 228° Southwest 279 321 7,800 -240 Descending FlightAware
09:16AM 25.9390 -80.1380 240° Southwest 266 306 7,800  Level FlightAware
09:16AM 25.9230 -80.1670 238° Southwest 249 287 7,800  Level FlightAware
09:17AM 25.9150 -80.1850 244° Southwest 246 283 7,800  Level FlightAware
09:17AM 25.9050 -80.2150 250° West 247 284 7,800  Level FlightAware
09:17AM 25.9000 -80.2310 251° West 247 284 7,800 -300 Level FlightAware
09:18AM 25.8880 -80.2670 250° West 241 277 7,600 -1,140 Descending FlightAware
09:19AM 25.8910 -80.3170 274° West 244 281 6,500 -1,680 Descending FlightAware
09:19AM 25.9020 -80.3410 297° West 240 276 5,800 -1,860 Descending FlightAware
09:19AM 25.9100 -80.3590 296° West 240 276 5,300 -2,100 Descending FlightAware
09:20AM 25.9250 -80.3940 295° West 235 270 4,300 -1,800 Descending FlightAware
09:20AM 25.9290 -80.4030 296° West 235 270 4,100 -780 Descending FlightAware
09:20AM 25.9420 -80.4340 295° West 202 232 3,800 -540 Descending FlightAware
09:21AM 25.9460 -80.4490 287° West 195 224 3,700 -1,140 Descending FlightAware
09:21AM 25.9350 -80.4730 243° Southwest 180 207 3,000 -1,200 Descending FlightAware
09:21AM 25.9240 -80.4800 210° Southwest 169 194 2,800 -600 Descending FlightAware
09:21AM 25.9200 -80.4810 193° South 163 188 2,800  Level FlightAware
09:22AM 25.9060 -80.4730 153° Southeast 160 184 2,800  Level FlightAware
09:22AM 25.8880 -80.4600 147° Southeast 162 186 2,800 -240 Level FlightAware
09:23AM 25.8720 -80.4440 138° Southeast 166 191 2,600 -720 Descending FlightAware
09:23AM 25.8660 -80.4320 119° Southeast 172 198 2,300 -960 Descending FlightAware
09:23AM 25.8540 -80.4100 121° Southeast 169 194 1,900 -960 Descending FlightAware
09:24AM 25.8450 -80.3910 118° Southeast 168 193 1,500 -840 Descending FlightAware
09:24AM 25.8360 -80.3730 119° Southeast 146 168 1,200 -720 Descending FlightAware
09:25AM 25.8290 -80.3600 121° Southeast 138 159 1,000 -720 Descending FlightAware
09:25AM 25.8210 -80.3450 121° Southeast 134 154 700 -780 Descending FlightAware
09:25AM 25.8170 -80.3360 116° Southeast 137 158 500 -840 Descending FlightAware
09:26AM 25.8120 -80.3270 122° Southeast 138 159 300 -840 Descending FlightAware
09:26AM 25.7990 -80.3020 120° Southeast 134 154 -480 Descending FlightAware
09:27AM 25.7920 -80.2890 121° Southeast 46 53  Level FlightAware
09:27AM 25.7920 -80.2870 90° East 20 23  Level FlightAware
09:27AM 25.7930 -80.2870 360° North 21 24  Level FlightAware
09:28AM 25.7940 -80.2870 360° North 27 31  Level FlightAware
09:28AM 25.7950 -80.2880 318° Northwest 28 32  Level FlightAware